sensor_id;sensor_type;location;lat;lon;timestamp;pressure;altitude;pressure_sealevel;temperature;humidity
7109;BME280;29079;41.930;25.558;2023-12-14T00:02:32;98891.09;;;3.66;100.00
7109;BME280;29079;41.930;25.558;2023-12-14T00:05:21;98897.97;;;3.69;100.00
7109;BME280;29079;41.930;25.558;2023-12-14T00:08:09;98895.31;;;3.69;100.00
7109;BME280;29079;41.930;25.558;2023-12-14T00:11:03;98910.16;;;3.83;100.00
7109;BME280;29079;41.930;25.558;2023-12-14T00:13:51;98882.53;;;3.63;100.00
7109;BME280;29079;41.930;25.558;2023-12-14T00:16:40;98916.59;;;3.79;100.00
7109;BME280;29079;41.930;25.558;2023-12-14T00:19:28;98925.81;;;3.73;100.00
7109;BME280;29079;41.930;25.558;2023-12-14T00:22:17;98920.53;;;3.73;100.00
7109;BME280;29079;41.930;25.558;2023-12-14T00:25:06;98919.66;;;3.86;100.00
7109;BME280;29079;41.930;25.558;2023-12-14T00:27:54;98916.34;;;3.58;100.00
7109;BME280;29079;41.930;25.558;2023-12-14T00:30:42;98927.28;;;3.64;100.00
7109;BME280;29079;41.930;25.558;2023-12-14T00:33:30;98916.94;;;3.61;100.00
7109;BME280;29079;41.930;25.558;2023-12-14T00:36:19;98924.13;;;3.59;100.00
7109;BME280;29079;41.930;25.558;2023-12-14T00:39:08;98924.03;;;3.48;100.00
7109;BME280;29079;41.930;25.558;2023-12-14T00:41:57;98931.34;;;3.44;100.00
7109;BME280;29079;41.930;25.558;2023-12-14T00:44:44;98911.78;;;3.47;100.00
7109;BME280;29079;41.930;25.558;2023-12-14T00:47:33;98901.34;;;3.58;100.00
7109;BME280;29079;41.930;25.558;2023-12-14T00:50:21;98930.69;;;3.66;100.00
7109;BME280;29079;41.930;25.558;2023-12-14T00:53:09;98935.63;;;3.45;100.00
7109;BME280;29079;41.930;25.558;2023-12-14T00:55:59;98921.50;;;3.46;100.00
7109;BME280;29079;41.930;25.558;2023-12-14T00:58:46;98904.63;;;3.36;100.00
7109;BME280;29079;41.930;25.558;2023-12-14T01:01:35;98914.63;;;3.44;100.00
7109;BME280;29079;41.930;25.558;2023-12-14T01:04:23;98921.06;;;3.40;100.00
7109;BME280;29079;41.930;25.558;2023-12-14T01:07:11;98923.91;;;3.37;100.00
7109;BME280;29079;41.930;25.558;2023-12-14T01:09:59;98923.19;;;3.60;100.00
7109;BME280;29079;41.930;25.558;2023-12-14T01:12:49;98905.06;;;3.43;100.00
7109;BME280;29079;41.930;25.558;2023-12-14T01:15:37;98875.50;;;3.12;100.00
7109;BME280;29079;41.930;25.558;2023-12-14T01:18:25;98907.69;;;3.30;100.00
7109;BME280;29079;41.930;25.558;2023-12-14T01:21:13;98904.84;;;3.46;100.00
7109;BME280;29079;41.930;25.558;2023-12-14T01:24:01;98915.28;;;3.47;100.00
7109;BME280;29079;41.930;25.558;2023-12-14T01:26:49;98910.34;;;3.43;100.00
7109;BME280;29079;41.930;25.558;2023-12-14T01:29:38;98885.28;;;3.61;100.00
7109;BME280;29079;41.930;25.558;2023-12-14T01:32:27;98874.69;;;3.24;100.00
7109;BME280;29079;41.930;25.558;2023-12-14T01:35:15;98893.75;;;3.41;100.00
7109;BME280;29079;41.930;25.558;2023-12-14T01:38:03;98881.56;;;3.77;100.00
7109;BME280;29079;41.930;25.558;2023-12-14T01:40:51;98870.88;;;3.41;100.00
7109;BME280;29079;41.930;25.558;2023-12-14T01:43:42;98861.28;;;3.27;100.00
7109;BME280;29079;41.930;25.558;2023-12-14T01:46:33;98861.38;;;3.26;100.00
7109;BME280;29079;41.930;25.558;2023-12-14T01:49:21;98856.84;;;3.15;100.00
7109;BME280;29079;41.930;25.558;2023-12-14T01:52:09;98857.25;;;3.35;100.00
7109;BME280;29079;41.930;25.558;2023-12-14T01:54:57;98852.81;;;3.22;100.00
7109;BME280;29079;41.930;25.558;2023-12-14T01:57:46;98849.34;;;3.35;100.00
7109;BME280;29079;41.930;25.558;2023-12-14T02:00:37;98856.09;;;3.39;100.00
7109;BME280;29079;41.930;25.558;2023-12-14T02:03:28;98853.25;;;3.16;100.00
7109;BME280;29079;41.930;25.558;2023-12-14T02:06:16;98854.09;;;3.29;100.00
7109;BME280;29079;41.930;25.558;2023-12-14T02:09:05;98851.44;;;3.42;100.00
7109;BME280;29079;41.930;25.558;2023-12-14T02:11:52;98858.97;;;3.10;100.00
7109;BME280;29079;41.930;25.558;2023-12-14T02:14:41;98852.41;;;3.16;100.00
7109;BME280;29079;41.930;25.558;2023-12-14T02:17:29;98854.19;;;3.15;100.00
7109;BME280;29079;41.930;25.558;2023-12-14T02:20:18;98847.66;;;3.21;100.00
7109;BME280;29079;41.930;25.558;2023-12-14T02:23:08;98863.91;;;3.27;100.00
7109;BME280;29079;41.930;25.558;2023-12-14T02:25:56;98863.38;;;3.22;100.00
7109;BME280;29079;41.930;25.558;2023-12-14T02:28:44;98853.56;;;3.24;100.00
7109;BME280;29079;41.930;25.558;2023-12-14T02:31:32;98849.22;;;3.36;100.00
7109;BME280;29079;41.930;25.558;2023-12-14T02:34:20;98856.44;;;3.34;100.00
7109;BME280;29079;41.930;25.558;2023-12-14T02:37:08;98836.72;;;3.14;100.00
7109;BME280;29079;41.930;25.558;2023-12-14T02:39:59;98846.38;;;3.39;100.00
7109;BME280;29079;41.930;25.558;2023-12-14T02:42:47;98844.69;;;3.38;100.00
7109;BME280;29079;41.930;25.558;2023-12-14T02:45:35;98855.13;;;3.53;100.00
7109;BME280;29079;41.930;25.558;2023-12-14T02:48:23;98859.38;;;3.17;100.00
7109;BME280;29079;41.930;25.558;2023-12-14T02:51:14;98855.22;;;3.38;100.00
7109;BME280;29079;41.930;25.558;2023-12-14T02:54:02;98848.31;;;3.24;100.00
7109;BME280;29079;41.930;25.558;2023-12-14T02:56:52;98857.59;;;3.30;100.00
7109;BME280;29079;41.930;25.558;2023-12-14T02:59:40;98858.19;;;3.21;100.00
7109;BME280;29079;41.930;25.558;2023-12-14T03:02:28;98849.13;;;3.12;100.00
7109;BME280;29079;41.930;25.558;2023-12-14T03:05:16;98844.72;;;3.12;100.00
7109;BME280;29079;41.930;25.558;2023-12-14T03:08:05;98857.59;;;3.17;100.00
7109;BME280;29079;41.930;25.558;2023-12-14T03:10:53;98851.59;;;3.02;100.00
7109;BME280;29079;41.930;25.558;2023-12-14T03:13:42;98856.63;;;3.05;100.00
7109;BME280;29079;41.930;25.558;2023-12-14T03:16:30;98837.66;;;3.13;100.00
7109;BME280;29079;41.930;25.558;2023-12-14T03:19:18;98849.78;;;3.16;100.00
7109;BME280;29079;41.930;25.558;2023-12-14T03:22:06;98852.94;;;3.08;100.00
7109;BME280;29079;41.930;25.558;2023-12-14T03:24:54;98858.31;;;3.06;100.00
7109;BME280;29079;41.930;25.558;2023-12-14T03:27:43;98848.50;;;3.34;100.00
7109;BME280;29079;41.930;25.558;2023-12-14T03:30:32;98852.84;;;2.96;100.00
7109;BME280;29079;41.930;25.558;2023-12-14T03:33:20;98847.88;;;3.05;100.00
7109;BME280;29079;41.930;25.558;2023-12-14T03:36:09;98849.78;;;3.03;100.00
7109;BME280;29079;41.930;25.558;2023-12-14T03:38:57;98849.25;;;3.23;100.00
7109;BME280;29079;41.930;25.558;2023-12-14T03:41:45;98856.53;;;3.20;100.00
7109;BME280;29079;41.930;25.558;2023-12-14T03:44:33;98846.94;;;3.06;100.00
7109;BME280;29079;41.930;25.558;2023-12-14T03:47:22;98856.97;;;3.01;100.00
7109;BME280;29079;41.930;25.558;2023-12-14T03:50:11;98831.31;;;2.90;100.00
7109;BME280;29079;41.930;25.558;2023-12-14T03:53:00;98850.50;;;2.92;100.00
7109;BME280;29079;41.930;25.558;2023-12-14T03:55:48;98847.69;;;2.95;100.00
7109;BME280;29079;41.930;25.558;2023-12-14T03:58:36;98847.03;;;2.91;100.00
7109;BME280;29079;41.930;25.558;2023-12-14T04:01:24;98851.88;;;2.97;100.00
7109;BME280;29079;41.930;25.558;2023-12-14T04:04:13;98849.75;;;2.77;100.00
7109;BME280;29079;41.930;25.558;2023-12-14T04:07:01;98862.09;;;3.41;100.00
7109;BME280;29079;41.930;25.558;2023-12-14T04:09:49;98877.72;;;3.05;100.00
7109;BME280;29079;41.930;25.558;2023-12-14T04:12:38;98870.66;;;2.93;100.00
7109;BME280;29079;41.930;25.558;2023-12-14T04:15:26;98859.88;;;2.96;100.00
7109;BME280;29079;41.930;25.558;2023-12-14T04:18:14;98874.75;;;2.84;100.00
7109;BME280;29079;41.930;25.558;2023-12-14T04:21:04;98869.16;;;2.89;100.00
7109;BME280;29079;41.930;25.558;2023-12-14T04:23:52;98854.13;;;3.17;100.00
7109;BME280;29079;41.930;25.558;2023-12-14T04:26:40;98858.19;;;3.46;100.00
7109;BME280;29079;41.930;25.558;2023-12-14T04:29:28;98863.81;;;3.16;100.00
7109;BME280;29079;41.930;25.558;2023-12-14T04:32:17;98873.09;;;3.35;100.00
7109;BME280;29079;41.930;25.558;2023-12-14T04:35:06;98874.03;;;3.08;100.00
7109;BME280;29079;41.930;25.558;2023-12-14T04:37:56;98866.66;;;3.13;100.00
7109;BME280;29079;41.930;25.558;2023-12-14T04:40:44;98852.28;;;2.91;100.00
7109;BME280;29079;41.930;25.558;2023-12-14T04:43:32;98862.84;;;3.04;100.00
7109;BME280;29079;41.930;25.558;2023-12-14T04:46:21;98852.50;;;2.88;100.00
7109;BME280;29079;41.930;25.558;2023-12-14T04:49:09;98845.97;;;2.81;100.00
7109;BME280;29079;41.930;25.558;2023-12-14T04:51:57;98837.75;;;2.86;100.00
7109;BME280;29079;41.930;25.558;2023-12-14T04:54:47;98847.84;;;3.43;100.00
7109;BME280;29079;41.930;25.558;2023-12-14T04:57:35;98845.13;;;3.06;100.00
7109;BME280;29079;41.930;25.558;2023-12-14T05:00:23;98854.41;;;3.25;100.00
7109;BME280;29079;41.930;25.558;2023-12-14T05:03:15;98859.78;;;2.97;100.00
7109;BME280;29079;41.930;25.558;2023-12-14T05:06:04;98856.28;;;2.84;100.00
7109;BME280;29079;41.930;25.558;2023-12-14T05:08:53;98852.63;;;2.87;100.00
7109;BME280;29079;41.930;25.558;2023-12-14T05:11:43;98860.09;;;2.80;100.00
7109;BME280;29079;41.930;25.558;2023-12-14T05:14:31;98852.94;;;2.95;100.00
7109;BME280;29079;41.930;25.558;2023-12-14T05:17:19;98835.34;;;2.95;100.00
7109;BME280;29079;41.930;25.558;2023-12-14T05:20:08;98846.06;;;3.31;100.00
7109;BME280;29079;41.930;25.558;2023-12-14T05:22:57;98838.78;;;2.83;100.00
7109;BME280;29079;41.930;25.558;2023-12-14T05:25:45;98828.56;;;2.78;100.00
7109;BME280;29079;41.930;25.558;2023-12-14T05:28:35;98832.06;;;2.79;100.00
7109;BME280;29079;41.930;25.558;2023-12-14T05:31:24;98817.41;;;2.75;100.00
7109;BME280;29079;41.930;25.558;2023-12-14T05:34:12;98830.03;;;2.70;100.00
7109;BME280;29079;41.930;25.558;2023-12-14T05:37:00;98833.91;;;2.64;100.00
7109;BME280;29079;41.930;25.558;2023-12-14T05:39:48;98805.69;;;2.53;100.00
7109;BME280;29079;41.930;25.558;2023-12-14T05:42:36;98826.38;;;2.85;100.00
7109;BME280;29079;41.930;25.558;2023-12-14T05:45:26;98831.53;;;3.12;100.00
7109;BME280;29079;41.930;25.558;2023-12-14T05:48:17;98830.88;;;2.83;100.00
7109;BME280;29079;41.930;25.558;2023-12-14T05:51:05;98825.63;;;2.70;100.00
7109;BME280;29079;41.930;25.558;2023-12-14T05:53:53;98839.09;;;2.66;100.00
7109;BME280;29079;41.930;25.558;2023-12-14T05:56:41;98829.19;;;2.69;100.00
7109;BME280;29079;41.930;25.558;2023-12-14T05:59:29;98821.41;;;2.81;100.00
7109;BME280;29079;41.930;25.558;2023-12-14T06:02:18;98830.91;;;2.70;100.00
7109;BME280;29079;41.930;25.558;2023-12-14T06:05:07;98832.78;;;2.68;100.00
7109;BME280;29079;41.930;25.558;2023-12-14T06:07:56;98839.00;;;2.80;100.00
7109;BME280;29079;41.930;25.558;2023-12-14T06:10:44;98851.00;;;2.71;100.00
7109;BME280;29079;41.930;25.558;2023-12-14T06:13:32;98832.97;;;2.52;100.00
7109;BME280;29079;41.930;25.558;2023-12-14T06:16:20;98831.19;;;2.66;100.00
7109;BME280;29079;41.930;25.558;2023-12-14T06:19:10;98837.63;;;2.87;100.00
7109;BME280;29079;41.930;25.558;2023-12-14T06:21:58;98850.22;;;2.96;100.00
7109;BME280;29079;41.930;25.558;2023-12-14T06:24:47;98855.56;;;2.82;100.00
7109;BME280;29079;41.930;25.558;2023-12-14T06:27:35;98875.69;;;2.70;100.00
7109;BME280;29079;41.930;25.558;2023-12-14T06:30:23;98871.56;;;2.66;100.00
7109;BME280;29079;41.930;25.558;2023-12-14T06:33:11;98879.44;;;2.53;100.00
7109;BME280;29079;41.930;25.558;2023-12-14T06:36:05;98880.56;;;2.49;100.00
7109;BME280;29079;41.930;25.558;2023-12-14T06:38:54;98867.75;;;2.57;100.00
7109;BME280;29079;41.930;25.558;2023-12-14T06:41:42;98883.31;;;3.01;100.00
7109;BME280;29079;41.930;25.558;2023-12-14T06:44:29;98883.91;;;2.78;100.00
7109;BME280;29079;41.930;25.558;2023-12-14T06:47:20;98879.88;;;2.60;100.00
7109;BME280;29079;41.930;25.558;2023-12-14T06:50:09;98887.28;;;2.81;100.00
7109;BME280;29079;41.930;25.558;2023-12-14T06:52:59;98880.56;;;2.89;100.00
7109;BME280;29079;41.930;25.558;2023-12-14T06:55:47;98882.84;;;2.81;100.00
7109;BME280;29079;41.930;25.558;2023-12-14T06:58:35;98884.97;;;2.76;100.00
7109;BME280;29079;41.930;25.558;2023-12-14T07:01:23;98889.38;;;2.75;100.00
7109;BME280;29079;41.930;25.558;2023-12-14T07:04:11;98903.59;;;2.73;100.00
7109;BME280;29079;41.930;25.558;2023-12-14T07:07:03;98900.69;;;3.03;100.00
7109;BME280;29079;41.930;25.558;2023-12-14T07:09:52;98900.50;;;3.45;100.00
7109;BME280;29079;41.930;25.558;2023-12-14T07:12:40;98894.59;;;3.03;100.00
7109;BME280;29079;41.930;25.558;2023-12-14T07:15:28;98894.91;;;2.98;100.00
7109;BME280;29079;41.930;25.558;2023-12-14T07:18:16;98891.09;;;2.89;100.00
7109;BME280;29079;41.930;25.558;2023-12-14T07:21:05;98892.38;;;2.96;100.00
7109;BME280;29079;41.930;25.558;2023-12-14T07:23:53;98894.47;;;2.91;100.00
7109;BME280;29079;41.930;25.558;2023-12-14T07:26:42;98896.81;;;3.09;100.00
7109;BME280;29079;41.930;25.558;2023-12-14T07:29:30;98904.94;;;3.19;100.00
7109;BME280;29079;41.930;25.558;2023-12-14T07:32:18;98902.09;;;3.22;100.00
7109;BME280;29079;41.930;25.558;2023-12-14T07:35:07;98915.50;;;3.31;100.00
7109;BME280;29079;41.930;25.558;2023-12-14T07:37:57;98908.19;;;3.22;100.00
7109;BME280;29079;41.930;25.558;2023-12-14T07:40:45;98908.31;;;3.34;100.00
7109;BME280;29079;41.930;25.558;2023-12-14T07:43:35;98907.38;;;3.47;100.00
7109;BME280;29079;41.930;25.558;2023-12-14T07:46:23;98902.31;;;3.44;100.00
7109;BME280;29079;41.930;25.558;2023-12-14T07:49:11;98890.28;;;3.27;100.00
7109;BME280;29079;41.930;25.558;2023-12-14T07:51:59;98892.28;;;3.37;100.00
7109;BME280;29079;41.930;25.558;2023-12-14T07:54:47;98889.00;;;3.46;100.00
7109;BME280;29079;41.930;25.558;2023-12-14T07:57:35;98896.81;;;3.47;100.00
7109;BME280;29079;41.930;25.558;2023-12-14T08:00:24;98891.81;;;3.56;100.00
7109;BME280;29079;41.930;25.558;2023-12-14T08:03:12;98892.75;;;3.80;100.00
7109;BME280;29079;41.930;25.558;2023-12-14T08:06:01;98896.44;;;3.91;100.00
7109;BME280;29079;41.930;25.558;2023-12-14T08:08:49;98887.88;;;3.87;100.00
7109;BME280;29079;41.930;25.558;2023-12-14T08:11:37;98887.75;;;3.89;100.00
7109;BME280;29079;41.930;25.558;2023-12-14T08:14:25;98885.31;;;3.98;100.00
7109;BME280;29079;41.930;25.558;2023-12-14T08:17:15;98887.00;;;3.99;100.00
7109;BME280;29079;41.930;25.558;2023-12-14T08:20:03;98883.75;;;3.83;100.00
7109;BME280;29079;41.930;25.558;2023-12-14T08:22:55;98887.66;;;3.90;100.00
7109;BME280;29079;41.930;25.558;2023-12-14T08:25:43;98874.69;;;3.87;100.00
7109;BME280;29079;41.930;25.558;2023-12-14T08:28:31;98877.53;;;3.84;100.00
7109;BME280;29079;41.930;25.558;2023-12-14T08:31:20;98857.81;;;3.77;100.00
7109;BME280;29079;41.930;25.558;2023-12-14T08:34:10;98885.97;;;3.89;100.00
7109;BME280;29079;41.930;25.558;2023-12-14T08:37:00;98881.84;;;3.98;100.00
7109;BME280;29079;41.930;25.558;2023-12-14T08:39:48;98877.69;;;4.07;100.00
7109;BME280;29079;41.930;25.558;2023-12-14T08:42:40;98883.53;;;4.23;100.00
7109;BME280;29079;41.930;25.558;2023-12-14T08:45:28;98886.19;;;4.23;100.00
7109;BME280;29079;41.930;25.558;2023-12-14T08:48:16;98881.50;;;4.27;100.00
7109;BME280;29079;41.930;25.558;2023-12-14T08:51:06;98876.03;;;4.30;100.00
7109;BME280;29079;41.930;25.558;2023-12-14T08:53:54;98859.44;;;4.28;100.00
7109;BME280;29079;41.930;25.558;2023-12-14T08:56:42;98891.91;;;4.41;100.00
7109;BME280;29079;41.930;25.558;2023-12-14T08:59:30;98904.34;;;4.52;100.00
7109;BME280;29079;41.930;25.558;2023-12-14T09:02:18;98885.06;;;4.39;100.00
7109;BME280;29079;41.930;25.558;2023-12-14T09:05:07;98872.69;;;4.39;100.00
7109;BME280;29079;41.930;25.558;2023-12-14T09:07:59;98893.72;;;4.41;100.00
7109;BME280;29079;41.930;25.558;2023-12-14T09:10:48;98893.72;;;4.41;100.00
7109;BME280;29079;41.930;25.558;2023-12-14T09:13:35;98895.56;;;4.51;100.00
7109;BME280;29079;41.930;25.558;2023-12-14T09:16:24;98817.03;;;4.05;100.00
7109;BME280;29079;41.930;25.558;2023-12-14T09:19:12;98891.78;;;4.43;100.00
7109;BME280;29079;41.930;25.558;2023-12-14T09:22:00;98889.94;;;4.56;100.00
7109;BME280;29079;41.930;25.558;2023-12-14T09:24:49;98891.47;;;4.47;100.00
7109;BME280;29079;41.930;25.558;2023-12-14T09:27:37;98882.47;;;4.50;100.00
7109;BME280;29079;41.930;25.558;2023-12-14T09:30:26;98884.28;;;4.49;100.00
7109;BME280;29079;41.930;25.558;2023-12-14T09:33:13;98879.81;;;4.50;100.00
7109;BME280;29079;41.930;25.558;2023-12-14T09:36:02;98884.44;;;4.59;100.00
7109;BME280;29079;41.930;25.558;2023-12-14T09:38:50;98883.97;;;4.65;100.00
7109;BME280;29079;41.930;25.558;2023-12-14T09:41:40;98874.59;;;4.61;100.00
7109;BME280;29079;41.930;25.558;2023-12-14T09:44:28;98872.69;;;4.63;100.00
7109;BME280;29079;41.930;25.558;2023-12-14T09:47:17;98871.34;;;4.58;100.00
7109;BME280;29079;41.930;25.558;2023-12-14T09:50:06;98853.19;;;4.64;100.00
7109;BME280;29079;41.930;25.558;2023-12-14T09:52:54;98850.56;;;4.64;100.00
7109;BME280;29079;41.930;25.558;2023-12-14T09:55:43;98834.66;;;4.53;100.00
7109;BME280;29079;41.930;25.558;2023-12-14T09:58:33;98827.25;;;4.58;100.00
7109;BME280;29079;41.930;25.558;2023-12-14T10:01:21;98840.22;;;4.61;100.00
7109;BME280;29079;41.930;25.558;2023-12-14T10:04:12;98832.53;;;4.58;100.00
7109;BME280;29079;41.930;25.558;2023-12-14T10:07:00;98833.63;;;4.67;100.00
7109;BME280;29079;41.930;25.558;2023-12-14T10:09:53;98832.94;;;4.65;100.00
7109;BME280;29079;41.930;25.558;2023-12-14T10:12:51;98822.72;;;4.71;100.00
7109;BME280;29079;41.930;25.558;2023-12-14T10:15:42;98798.41;;;4.55;100.00
7109;BME280;29079;41.930;25.558;2023-12-14T10:18:32;98820.69;;;4.75;100.00
7109;BME280;29079;41.930;25.558;2023-12-14T10:21:21;98822.50;;;4.86;100.00
7109;BME280;29079;41.930;25.558;2023-12-14T10:24:09;98833.09;;;4.86;100.00
7109;BME280;29079;41.930;25.558;2023-12-14T10:26:57;98821.56;;;4.87;100.00
7109;BME280;29079;41.930;25.558;2023-12-14T10:29:46;98802.31;;;4.96;100.00
7109;BME280;29079;41.930;25.558;2023-12-14T10:32:35;98793.69;;;4.94;100.00
7109;BME280;29079;41.930;25.558;2023-12-14T10:35:23;98800.06;;;5.03;100.00
7109;BME280;29079;41.930;25.558;2023-12-14T10:38:12;98789.94;;;5.08;100.00
7109;BME280;29079;41.930;25.558;2023-12-14T10:41:03;98788.63;;;5.14;100.00
7109;BME280;29079;41.930;25.558;2023-12-14T10:43:54;98776.16;;;5.16;100.00
7109;BME280;29079;41.930;25.558;2023-12-14T10:47:03;98780.34;;;5.18;100.00
7109;BME280;29079;41.930;25.558;2023-12-14T10:49:54;98770.72;;;5.17;100.00
7109;BME280;29079;41.930;25.558;2023-12-14T10:52:43;98699.44;;;4.82;100.00
7109;BME280;29079;41.930;25.558;2023-12-14T10:55:37;98770.25;;;5.23;100.00
7109;BME280;29079;41.930;25.558;2023-12-14T10:58:25;98769.88;;;5.28;100.00
7109;BME280;29079;41.930;25.558;2023-12-14T11:01:15;98749.56;;;5.29;100.00
7109;BME280;29079;41.930;25.558;2023-12-14T11:04:06;98727.28;;;5.31;100.00
7109;BME280;29079;41.930;25.558;2023-12-14T11:07:01;98741.47;;;5.41;100.00
7109;BME280;29079;41.930;25.558;2023-12-14T11:09:49;98730.66;;;5.45;100.00
7109;BME280;29079;41.930;25.558;2023-12-14T11:12:37;98731.75;;;5.42;100.00
7109;BME280;29079;41.930;25.558;2023-12-14T11:15:25;98734.13;;;5.45;100.00
7109;BME280;29079;41.930;25.558;2023-12-14T11:18:25;98741.59;;;5.51;100.00
7109;BME280;29079;41.930;25.558;2023-12-14T11:21:18;98736.91;;;5.44;100.00
7109;BME280;29079;41.930;25.558;2023-12-14T11:24:09;98740.00;;;5.49;100.00
7109;BME280;29079;41.930;25.558;2023-12-14T11:26:58;98728.72;;;5.47;100.00
7109;BME280;29079;41.930;25.558;2023-12-14T11:29:47;98732.44;;;5.44;100.00
7109;BME280;29079;41.930;25.558;2023-12-14T11:32:36;98732.81;;;5.51;100.00
7109;BME280;29079;41.930;25.558;2023-12-14T11:35:24;98717.19;;;5.48;100.00
7109;BME280;29079;41.930;25.558;2023-12-14T11:38:12;98716.44;;;5.46;100.00
7109;BME280;29079;41.930;25.558;2023-12-14T11:41:02;98720.06;;;5.45;100.00
7109;BME280;29079;41.930;25.558;2023-12-14T11:43:51;98728.97;;;5.44;100.00
7109;BME280;29079;41.930;25.558;2023-12-14T11:46:39;98723.06;;;5.40;100.00
7109;BME280;29079;41.930;25.558;2023-12-14T11:49:29;98728.25;;;5.41;100.00
7109;BME280;29079;41.930;25.558;2023-12-14T11:52:18;98739.44;;;5.45;100.00
7109;BME280;29079;41.930;25.558;2023-12-14T11:55:07;98738.59;;;5.45;100.00
7109;BME280;29079;41.930;25.558;2023-12-14T11:57:59;98727.16;;;5.44;100.00
7109;BME280;29079;41.930;25.558;2023-12-14T12:00:47;98711.53;;;5.41;100.00
7109;BME280;29079;41.930;25.558;2023-12-14T12:03:35;98720.19;;;5.43;100.00
7109;BME280;29079;41.930;25.558;2023-12-14T12:06:25;98723.69;;;5.44;100.00
7109;BME280;29079;41.930;25.558;2023-12-14T12:09:32;98722.59;;;5.46;100.00
7109;BME280;29079;41.930;25.558;2023-12-14T12:12:21;98728.97;;;5.44;100.00
7109;BME280;29079;41.930;25.558;2023-12-14T12:15:10;98722.47;;;5.48;100.00
7109;BME280;29079;41.930;25.558;2023-12-14T12:17:59;98717.44;;;5.45;100.00
7109;BME280;29079;41.930;25.558;2023-12-14T12:20:47;98719.94;;;5.46;100.00
7109;BME280;29079;41.930;25.558;2023-12-14T12:23:35;98697.47;;;5.40;100.00
7109;BME280;29079;41.930;25.558;2023-12-14T12:26:23;98713.34;;;5.40;100.00
7109;BME280;29079;41.930;25.558;2023-12-14T12:29:12;98713.47;;;5.39;100.00
7109;BME280;29079;41.930;25.558;2023-12-14T12:32:01;98719.34;;;5.43;100.00
7109;BME280;29079;41.930;25.558;2023-12-14T12:34:49;98717.78;;;5.40;100.00
7109;BME280;29079;41.930;25.558;2023-12-14T12:37:39;98739.44;;;5.45;100.00
7109;BME280;29079;41.930;25.558;2023-12-14T12:40:27;98741.13;;;5.46;100.00
7109;BME280;29079;41.930;25.558;2023-12-14T12:43:18;98731.25;;;5.37;100.00
7109;BME280;29079;41.930;25.558;2023-12-14T12:46:06;98717.66;;;5.41;100.00
7109;BME280;29079;41.930;25.558;2023-12-14T12:48:55;98731.88;;;5.40;100.00
7109;BME280;29079;41.930;25.558;2023-12-14T12:51:43;98732.44;;;5.44;100.00
7109;BME280;29079;41.930;25.558;2023-12-14T12:54:31;98729.22;;;5.40;100.00
7109;BME280;29079;41.930;25.558;2023-12-14T12:57:20;98730.66;;;5.45;100.00
7109;BME280;29079;41.930;25.558;2023-12-14T13:00:09;98733.53;;;5.41;100.00
7109;BME280;29079;41.930;25.558;2023-12-14T13:02:58;98747.75;;;5.52;100.00
7109;BME280;29079;41.930;25.558;2023-12-14T13:05:49;98759.84;;;5.54;100.00
7109;BME280;29079;41.930;25.558;2023-12-14T13:08:37;98753.59;;;5.55;100.00
7109;BME280;29079;41.930;25.558;2023-12-14T13:11:25;98756.84;;;5.59;100.00
7109;BME280;29079;41.930;25.558;2023-12-14T13:14:13;98766.22;;;5.63;100.00
7109;BME280;29079;41.930;25.558;2023-12-14T13:17:02;98758.03;;;5.66;100.00
7109;BME280;29079;41.930;25.558;2023-12-14T13:19:51;98754.28;;;5.69;100.00
7109;BME280;29079;41.930;25.558;2023-12-14T13:22:40;98769.22;;;5.70;100.00
7109;BME280;29079;41.930;25.558;2023-12-14T13:25:28;98766.06;;;5.76;100.00
7109;BME280;29079;41.930;25.558;2023-12-14T13:28:16;98778.34;;;5.77;100.00
7109;BME280;29079;41.930;25.558;2023-12-14T13:31:04;98788.13;;;5.77;100.00
7109;BME280;29079;41.930;25.558;2023-12-14T13:33:53;98787.59;;;5.83;100.00
7109;BME280;29079;41.930;25.558;2023-12-14T13:36:41;98790.97;;;5.85;100.00
7109;BME280;29079;41.930;25.558;2023-12-14T13:39:30;98797.94;;;5.86;100.00
7109;BME280;29079;41.930;25.558;2023-12-14T13:42:20;98801.31;;;5.88;100.00
7109;BME280;29079;41.930;25.558;2023-12-14T13:45:09;98784.59;;;5.76;100.00
7109;BME280;29079;41.930;25.558;2023-12-14T13:47:57;98813.72;;;5.87;100.00
7109;BME280;29079;41.930;25.558;2023-12-14T13:50:46;98807.47;;;5.88;100.00
7109;BME280;29079;41.930;25.558;2023-12-14T13:53:34;98803.13;;;5.87;100.00
7109;BME280;29079;41.930;25.558;2023-12-14T13:56:24;98813.97;;;5.84;100.00
7109;BME280;29079;41.930;25.558;2023-12-14T13:59:12;98819.25;;;5.84;100.00
7109;BME280;29079;41.930;25.558;2023-12-14T14:02:00;98804.19;;;5.85;100.00
7109;BME280;29079;41.930;25.558;2023-12-14T14:04:48;98818.19;;;5.87;100.00
7109;BME280;29079;41.930;25.558;2023-12-14T14:07:38;98799.28;;;5.80;100.00
7109;BME280;29079;41.930;25.558;2023-12-14T14:10:27;98813.84;;;5.86;100.00
7109;BME280;29079;41.930;25.558;2023-12-14T14:13:16;98806.84;;;5.85;100.00
7109;BME280;29079;41.930;25.558;2023-12-14T14:16:06;98815.28;;;5.79;100.00
7109;BME280;29079;41.930;25.558;2023-12-14T14:18:54;98805.91;;;5.74;100.00
7109;BME280;29079;41.930;25.558;2023-12-14T14:21:42;98815.03;;;5.82;100.00
7109;BME280;29079;41.930;25.558;2023-12-14T14:24:30;98815.16;;;5.80;100.00
7109;BME280;29079;41.930;25.558;2023-12-14T14:27:18;98800.38;;;5.66;100.00
7109;BME280;29079;41.930;25.558;2023-12-14T14:30:09;98809.50;;;5.73;100.00
7109;BME280;29079;41.930;25.558;2023-12-14T14:32:57;98798.22;;;5.71;100.00
7109;BME280;29079;41.930;25.558;2023-12-14T14:35:46;98803.53;;;5.60;100.00
7109;BME280;29079;41.930;25.558;2023-12-14T14:38:34;98803.03;;;5.66;100.00
7109;BME280;29079;41.930;25.558;2023-12-14T14:41:22;98817.25;;;5.65;100.00
7109;BME280;29079;41.930;25.558;2023-12-14T14:44:10;98807.03;;;5.61;100.00
7109;BME280;29079;41.930;25.558;2023-12-14T14:47:00;98822.41;;;5.67;100.00
7109;BME280;29079;41.930;25.558;2023-12-14T14:49:48;98822.31;;;5.57;100.00
7109;BME280;29079;41.930;25.558;2023-12-14T14:52:37;98817.50;;;5.62;100.00
7109;BME280;29079;41.930;25.558;2023-12-14T14:55:26;98816.19;;;5.56;100.00